createdAt,value
2017-10-19T00:02:25.430Z,106.33
2017-10-19T00:04:51.761Z,133.67
2017-10-19T00:07:18.113Z,122.20
2017-10-19T00:09:45.135Z,121.13
2017-10-19T00:12:11.508Z,153.20
2017-10-19T00:14:37.927Z,134.17
2017-10-19T00:17:04.349Z,136.07
2017-10-19T00:19:30.667Z,135.40
2017-10-19T00:21:57.082Z,130.90
2017-10-19T00:24:23.436Z,131.83
2017-10-19T00:26:49.766Z,134.87
2017-10-19T00:29:16.103Z,130.30
2017-10-19T00:31:42.384Z,132.67
2017-10-19T00:34:08.698Z,141.57
2017-10-19T00:36:35.816Z,125.57
2017-10-19T00:39:02.139Z,134.33
2017-10-19T00:41:28.472Z,135.23
2017-10-19T00:43:54.859Z,133.20
2017-10-19T00:46:21.410Z,130.30
2017-10-19T00:48:47.729Z,132.87
2017-10-19T00:51:14.107Z,119.53
2017-10-19T00:53:40.446Z,121.50
2017-10-19T00:56:06.805Z,134.13
2017-10-19T00:58:33.113Z,127.37
2017-10-19T01:00:59.459Z,134.17
2017-10-19T01:03:26.559Z,137.80
2017-10-19T01:05:52.959Z,120.63
2017-10-19T01:08:19.399Z,124.53
2017-10-19T01:10:45.763Z,122.93
2017-10-19T01:13:12.113Z,121.83
2017-10-19T01:15:38.460Z,126.93
2017-10-19T01:18:04.904Z,151.23
2017-10-19T01:20:31.945Z,131.20
2017-10-19T01:22:59.094Z,121.97
2017-10-19T01:25:26.444Z,117.53
2017-10-19T01:27:52.827Z,138.33
2017-10-19T01:30:19.783Z,115.13
2017-10-19T01:32:46.258Z,119.60
2017-10-19T01:35:13.337Z,123.40
2017-10-19T01:37:40.605Z,121.10
2017-10-19T01:40:06.992Z,134.07
2017-10-19T01:42:33.353Z,127.40
2017-10-19T01:45:00.433Z,128.30
2017-10-19T01:47:26.781Z,132.20
2017-10-19T01:49:59.078Z,128.00
2017-10-19T01:52:25.472Z,134.27
2017-10-19T01:54:51.904Z,117.80
2017-10-19T01:57:18.266Z,130.47
2017-10-19T01:59:44.601Z,125.70
2017-10-19T02:02:10.976Z,127.93
2017-10-19T02:04:37.307Z,123.07
2017-10-19T02:07:03.804Z,137.57
2017-10-19T02:09:30.127Z,128.13
2017-10-19T02:11:56.459Z,116.07
2017-10-19T02:14:22.787Z,107.63
2017-10-19T02:16:49.137Z,112.37
2017-10-19T02:19:15.489Z,106.60
2017-10-19T02:21:42.573Z,123.50
2017-10-19T02:24:09.111Z,121.53
2017-10-19T02:26:35.466Z,118.90
2017-10-19T02:29:01.788Z,132.07
2017-10-19T02:31:28.150Z,104.93
2017-10-19T02:33:55.275Z,106.47
2017-10-19T02:36:21.618Z,124.20
2017-10-19T02:38:47.989Z,103.50
2017-10-19T02:41:14.350Z,120.53
2017-10-19T02:43:40.702Z,112.07
2017-10-19T02:46:07.048Z,99.47
2017-10-19T02:48:33.395Z,103.80
2017-10-19T02:50:59.742Z,107.17
2017-10-19T02:53:26.132Z,97.00
2017-10-19T02:55:52.598Z,88.90
2017-10-19T02:58:18.917Z,113.43
2017-10-19T03:00:45.979Z,114.17
2017-10-19T03:03:12.354Z,103.77
2017-10-19T03:05:38.804Z,111.67
2017-10-19T03:08:05.252Z,103.93
2017-10-19T03:10:31.602Z,110.83
2017-10-19T03:12:58.748Z,119.83
2017-10-19T03:15:25.867Z,114.40
2017-10-19T03:17:53.185Z,114.13
2017-10-19T03:20:19.611Z,115.83
2017-10-19T03:22:45.929Z,106.03
2017-10-19T03:25:13.005Z,115.83
2017-10-19T03:27:39.487Z,112.33
2017-10-19T03:30:05.937Z,114.67
2017-10-19T03:32:32.441Z,114.33
2017-10-19T03:34:58.841Z,113.10
2017-10-19T03:37:25.206Z,112.80
2017-10-19T03:39:52.449Z,95.50
2017-10-19T03:42:19.826Z,99.53
2017-10-19T03:44:46.345Z,97.13
2017-10-19T03:47:12.898Z,99.83
2017-10-19T03:49:39.532Z,105.67
2017-10-19T03:52:06.061Z,105.10
2017-10-19T03:54:32.612Z,106.37
2017-10-19T03:56:58.965Z,102.57
2017-10-19T03:59:26.269Z,110.47
2017-10-19T04:01:52.620Z,118.60
2017-10-19T04:04:18.958Z,110.20
2017-10-19T04:06:45.335Z,91.27
2017-10-19T04:09:11.663Z,99.83
2017-10-19T04:11:37.988Z,88.20
2017-10-19T04:14:04.401Z,92.60
2017-10-19T04:16:30.741Z,94.83
2017-10-19T04:18:57.191Z,89.90
2017-10-19T04:21:23.635Z,98.90
2017-10-19T04:23:50.073Z,98.60
2017-10-19T04:26:16.463Z,91.30
2017-10-19T04:28:43.652Z,91.20
2017-10-19T04:31:10.066Z,92.60
2017-10-19T04:33:37.276Z,100.33
2017-10-19T04:36:03.762Z,99.73
2017-10-19T04:38:30.178Z,95.97
2017-10-19T04:40:56.813Z,92.33
2017-10-19T04:43:30.330Z,94.63
2017-10-19T04:45:56.889Z,97.23
2017-10-19T04:48:23.315Z,94.30
2017-10-19T04:50:49.960Z,89.37
2017-10-19T04:53:16.325Z,88.70
2017-10-19T04:55:43.700Z,87.20
2017-10-19T04:58:10.033Z,86.67
2017-10-19T05:00:36.408Z,77.60
2017-10-19T05:03:02.748Z,78.53
2017-10-19T05:05:29.112Z,88.03
2017-10-19T05:07:55.469Z,84.53
2017-10-19T05:10:22.580Z,83.90
2017-10-19T05:12:48.958Z,96.57
2017-10-19T05:15:15.596Z,88.63
2017-10-19T05:17:42.082Z,85.00
2017-10-19T05:20:08.546Z,81.93
2017-10-19T05:22:34.994Z,87.53
2017-10-19T05:25:01.550Z,73.90
2017-10-19T05:27:27.944Z,84.80
2017-10-19T05:29:54.387Z,74.03
2017-10-19T05:32:21.474Z,79.10
2017-10-19T05:34:47.940Z,69.90
2017-10-19T05:37:16.189Z,81.00
2017-10-19T05:39:42.555Z,84.83
2017-10-19T05:42:09.257Z,85.73
2017-10-19T05:44:35.602Z,80.73
2017-10-19T05:47:01.968Z,78.67
2017-10-19T05:49:28.278Z,86.40
2017-10-19T05:51:54.649Z,80.07
2017-10-19T05:54:21.947Z,91.17
2017-10-19T05:56:48.444Z,90.57
2017-10-19T05:59:14.858Z,76.40
2017-10-19T06:01:41.302Z,78.40
2017-10-19T06:04:07.757Z,78.83
2017-10-19T06:06:34.172Z,70.70
2017-10-19T06:09:01.678Z,70.80
2017-10-19T06:11:28.031Z,69.33
2017-10-19T06:13:54.378Z,68.47
2017-10-19T06:16:20.729Z,66.87
2017-10-19T06:18:47.807Z,68.00
2017-10-19T06:21:14.177Z,59.70
2017-10-19T06:23:40.627Z,62.70
2017-10-19T06:26:07.345Z,61.90
2017-10-19T06:28:33.687Z,57.80
2017-10-19T06:31:00.195Z,59.73
2017-10-19T06:33:26.561Z,57.10
2017-10-19T06:35:53.822Z,62.13
2017-10-19T06:38:20.178Z,51.20
2017-10-19T06:40:47.264Z,53.93
2017-10-19T06:43:14.658Z,57.10
2017-10-19T06:45:41.762Z,62.40
2017-10-19T06:48:08.210Z,67.60
2017-10-19T06:50:34.592Z,53.73
2017-10-19T06:53:01.891Z,54.73
2017-10-19T06:55:28.322Z,54.80
2017-10-19T06:57:55.744Z,47.40
2017-10-19T07:00:22.269Z,48.17
2017-10-19T07:02:49.362Z,47.13
2017-10-19T07:05:15.712Z,54.17
2017-10-19T07:07:42.081Z,53.07
2017-10-19T07:10:09.187Z,44.63
2017-10-19T07:12:35.543Z,41.50
2017-10-19T07:15:01.923Z,43.77
2017-10-19T07:17:28.289Z,36.27
2017-10-19T07:19:54.585Z,38.90
2017-10-19T07:22:21.008Z,44.10
2017-10-19T07:24:47.387Z,44.33
2017-10-19T07:27:13.666Z,37.10
2017-10-19T07:29:40.973Z,46.17
2017-10-19T07:32:07.267Z,37.70
2017-10-19T07:34:33.566Z,31.60
2017-10-19T07:37:00.580Z,37.93
2017-10-19T07:39:26.883Z,37.33
2017-10-19T07:41:53.242Z,32.77
2017-10-19T07:44:19.552Z,30.90
2017-10-19T07:46:46.301Z,36.00
2017-10-19T07:49:12.648Z,33.00
2017-10-19T07:51:38.980Z,30.83
2017-10-19T07:54:05.458Z,29.27
2017-10-19T07:56:32.532Z,34.70
2017-10-19T07:58:58.896Z,36.87
2017-10-19T08:01:25.237Z,35.10
2017-10-19T08:03:52.187Z,31.17
2017-10-19T08:06:18.510Z,30.33
2017-10-19T08:08:44.793Z,30.73
2017-10-19T08:11:11.177Z,29.70
2017-10-19T08:13:37.473Z,31.47
2017-10-19T08:16:04.261Z,29.70
2017-10-19T08:18:30.567Z,30.10
2017-10-19T08:20:56.963Z,28.60
2017-10-19T08:23:23.290Z,34.47
2017-10-19T08:25:49.672Z,29.40
2017-10-19T08:28:16.278Z,30.40
2017-10-19T08:30:42.820Z,31.03
2017-10-19T08:33:09.191Z,25.50
2017-10-19T08:35:35.606Z,27.97
2017-10-19T08:38:02.016Z,24.73
2017-10-19T08:40:28.404Z,29.10
2017-10-19T08:42:55.477Z,35.90
2017-10-19T08:45:21.852Z,24.90
2017-10-19T08:47:48.280Z,27.23
2017-10-19T08:50:14.690Z,23.30
2017-10-19T08:52:40.992Z,23.43
2017-10-19T08:55:08.112Z,26.03
2017-10-19T08:57:34.488Z,24.10
2017-10-19T09:00:00.847Z,24.20
2017-10-19T09:02:27.135Z,27.10
2017-10-19T09:04:54.185Z,24.80
2017-10-19T09:07:20.474Z,24.80
2017-10-19T09:09:46.815Z,26.87
2017-10-19T09:12:13.103Z,30.67
2017-10-19T09:14:39.466Z,28.67
2017-10-19T09:17:05.881Z,25.83
2017-10-19T09:19:32.233Z,24.77
2017-10-19T09:21:58.591Z,26.40
2017-10-19T09:24:25.677Z,30.00
2017-10-19T09:26:52.050Z,30.27
2017-10-19T09:29:18.347Z,26.43
2017-10-19T09:31:44.798Z,30.93
2017-10-19T09:34:11.073Z,28.77
2017-10-19T09:36:38.256Z,29.60
2017-10-19T09:39:04.687Z,26.00
2017-10-19T09:41:30.957Z,29.63
2017-10-19T09:43:57.340Z,29.10
2017-10-19T09:46:23.639Z,28.03
2017-10-19T09:48:50.009Z,33.63
2017-10-19T09:51:16.463Z,33.70
2017-10-19T09:53:42.938Z,35.37
2017-10-19T09:56:10.138Z,28.27
2017-10-19T09:58:36.508Z,28.60
2017-10-19T10:01:02.842Z,31.87
2017-10-19T10:03:29.267Z,29.83
2017-10-19T10:05:55.706Z,28.77
2017-10-19T10:08:22.036Z,28.90
2017-10-19T10:10:48.488Z,27.27
2017-10-19T10:13:14.832Z,27.53
2017-10-19T10:15:42.014Z,35.97
2017-10-19T10:18:08.373Z,28.17
2017-10-19T10:20:34.659Z,28.70
2017-10-19T10:23:01.049Z,28.20
2017-10-19T10:25:27.474Z,32.53
2017-10-19T10:27:53.932Z,26.90
2017-10-19T10:30:20.296Z,28.33
2017-10-19T10:32:46.651Z,25.13
2017-10-19T10:35:12.961Z,34.20
2017-10-19T10:37:39.354Z,31.13
2017-10-19T10:40:06.407Z,30.07
2017-10-19T10:42:32.746Z,31.60
2017-10-19T10:44:59.887Z,31.93
2017-10-19T10:47:26.318Z,36.97
2017-10-19T10:49:53.418Z,28.10
2017-10-19T10:52:19.732Z,25.40
2017-10-19T10:54:46.217Z,24.23
2017-10-19T10:57:12.548Z,31.30
2017-10-19T10:59:39.804Z,29.27
2017-10-19T11:02:06.370Z,27.13
2017-10-19T11:04:33.490Z,27.43
2017-10-19T11:06:59.820Z,24.80
2017-10-19T11:09:26.204Z,22.20
2017-10-19T11:11:52.496Z,25.50
2017-10-19T11:14:18.824Z,23.63
2017-10-19T11:16:45.150Z,23.53
2017-10-19T11:19:11.516Z,23.77
2017-10-19T11:21:38.638Z,21.50
2017-10-19T11:24:04.967Z,22.63
2017-10-19T11:26:31.442Z,19.93
2017-10-19T11:28:57.756Z,19.37
2017-10-19T11:31:24.853Z,19.80
2017-10-19T11:33:51.134Z,17.93
2017-10-19T11:36:18.182Z,21.53
2017-10-19T11:38:45.255Z,19.23
2017-10-19T11:41:11.575Z,20.70
2017-10-19T11:43:38.669Z,16.67
2017-10-19T11:46:04.960Z,17.20
2017-10-19T11:48:31.258Z,14.80
2017-10-19T11:50:58.405Z,15.67
2017-10-19T11:53:24.762Z,17.67
2017-10-19T11:55:51.110Z,17.20
2017-10-19T11:58:17.471Z,15.00
2017-10-19T12:00:43.925Z,14.43
2017-10-19T12:03:10.308Z,17.40
2017-10-19T12:05:37.425Z,14.93
2017-10-19T12:08:05.464Z,16.10
2017-10-19T12:10:31.937Z,15.70
2017-10-19T12:12:59.075Z,16.67
2017-10-19T12:15:25.441Z,16.80
2017-10-19T12:17:51.760Z,16.03
2017-10-19T12:20:19.910Z,15.13
2017-10-19T12:22:46.360Z,17.93
2017-10-19T12:25:13.420Z,15.83
2017-10-19T12:27:39.750Z,15.93
2017-10-19T12:30:06.938Z,14.03
2017-10-19T12:32:33.306Z,16.17
2017-10-19T12:34:59.619Z,18.33
2017-10-19T12:37:25.969Z,17.87
2017-10-19T12:39:52.300Z,16.90
2017-10-19T12:42:18.566Z,16.13
2017-10-19T12:44:44.883Z,16.57
2017-10-19T12:47:12.003Z,29.47
2017-10-19T12:49:38.342Z,16.83
2017-10-19T12:52:04.640Z,16.70
2017-10-19T12:54:31.206Z,15.47
2017-10-19T12:56:57.673Z,16.40
2017-10-19T12:59:24.026Z,17.53
2017-10-19T13:01:50.637Z,20.37
2017-10-19T13:04:17.891Z,17.83
2017-10-19T13:06:44.329Z,19.93
2017-10-19T13:09:10.693Z,18.33
2017-10-19T13:11:37.279Z,19.33
2017-10-19T13:14:04.393Z,21.20
2017-10-19T13:16:30.745Z,22.87
2017-10-19T13:18:57.165Z,24.80
2017-10-19T13:21:23.506Z,21.33
2017-10-19T13:23:49.828Z,19.77
2017-10-19T13:26:16.168Z,20.60
2017-10-19T13:28:43.255Z,25.30
2017-10-19T13:31:10.142Z,20.00
2017-10-19T13:33:36.414Z,25.00
2017-10-19T13:36:04.380Z,18.67
2017-10-19T13:38:31.467Z,21.90
2017-10-19T13:40:57.811Z,22.50
2017-10-19T13:43:31.234Z,18.57
2017-10-19T13:45:57.697Z,21.57
2017-10-19T13:48:24.890Z,19.90
2017-10-19T13:50:51.220Z,23.97
2017-10-19T13:53:17.902Z,21.30
2017-10-19T13:55:44.240Z,22.60
2017-10-19T13:58:10.558Z,25.20
2017-10-19T14:00:37.203Z,22.70
2017-10-19T14:03:03.558Z,31.67
2017-10-19T14:05:30.691Z,22.53
2017-10-19T14:07:57.947Z,26.83
2017-10-19T14:10:24.381Z,22.20
2017-10-19T14:12:50.929Z,25.30
2017-10-19T14:15:19.010Z,25.53
2017-10-19T14:17:45.324Z,26.37
2017-10-19T14:20:12.435Z,27.33
2017-10-19T14:22:38.793Z,25.73
2017-10-19T14:25:05.099Z,24.67
2017-10-19T14:27:31.457Z,23.33
2017-10-19T14:29:57.964Z,30.50
2017-10-19T14:32:24.303Z,24.27
2017-10-19T14:34:50.625Z,27.20
2017-10-19T14:37:16.886Z,30.43
2017-10-19T14:39:43.277Z,30.47
2017-10-19T14:42:09.627Z,28.67
2017-10-19T14:44:35.958Z,31.23
2017-10-19T14:47:02.341Z,26.17
2017-10-19T14:49:28.774Z,29.57
2017-10-19T14:51:55.106Z,38.63
2017-10-19T14:54:21.440Z,36.27
2017-10-19T14:56:47.842Z,36.50
2017-10-19T14:59:14.983Z,39.70
2017-10-19T15:01:41.498Z,40.47
2017-10-19T15:04:07.910Z,39.00
2017-10-19T15:06:34.329Z,38.73
2017-10-19T15:09:00.730Z,51.30
2017-10-19T15:11:27.019Z,47.13
2017-10-19T15:13:53.306Z,40.30
2017-10-19T15:16:20.329Z,44.63
2017-10-19T15:18:46.760Z,44.00
2017-10-19T15:21:13.287Z,47.70
2017-10-19T15:23:39.790Z,43.90
2017-10-19T15:26:06.101Z,52.00
2017-10-19T15:28:32.819Z,50.67
2017-10-19T15:30:59.867Z,55.37
2017-10-19T15:33:26.906Z,50.47
2017-10-19T15:35:53.195Z,50.47
2017-10-19T15:38:19.526Z,57.07
2017-10-19T15:40:45.861Z,52.27
2017-10-19T15:43:12.258Z,60.90
2017-10-19T15:45:39.381Z,56.70
2017-10-19T15:48:05.690Z,57.93
2017-10-19T15:50:32.034Z,57.67
2017-10-19T15:52:58.440Z,64.13
2017-10-19T15:55:24.802Z,61.47
2017-10-19T15:57:51.240Z,59.07
2017-10-19T16:00:17.603Z,60.23
2017-10-19T16:02:43.924Z,58.77
2017-10-19T16:05:10.976Z,61.87
2017-10-19T16:07:38.089Z,65.70
2017-10-19T16:10:04.408Z,66.20
2017-10-19T16:12:30.722Z,65.83
2017-10-19T16:14:57.111Z,69.57
2017-10-19T16:17:24.177Z,66.90
2017-10-19T16:19:50.541Z,67.43
2017-10-19T16:22:16.851Z,68.67
2017-10-19T16:24:44.150Z,62.03
2017-10-19T16:27:10.518Z,63.93
2017-10-19T16:29:37.623Z,66.87
2017-10-19T16:32:03.980Z,62.53
2017-10-19T16:34:31.028Z,61.63
2017-10-19T16:36:57.329Z,70.30
2017-10-19T16:39:23.657Z,78.17
2017-10-19T16:41:50.032Z,74.33
2017-10-19T16:44:21.415Z,72.83
2017-10-19T16:46:50.313Z,66.90
2017-10-19T16:51:50.872Z,79.60
2017-10-19T16:54:17.164Z,71.27
2017-10-19T16:56:43.512Z,76.10
2017-10-19T16:59:10.011Z,85.57
2017-10-19T17:01:37.154Z,73.23
2017-10-19T17:04:04.546Z,80.97
2017-10-19T17:06:31.054Z,75.50
2017-10-19T17:08:58.163Z,76.33
2017-10-19T17:11:24.475Z,80.77
2017-10-19T17:13:50.821Z,73.60
2017-10-19T17:16:17.292Z,80.50
2017-10-19T17:18:43.668Z,83.10
2017-10-19T17:21:10.060Z,87.47
2017-10-19T17:23:36.385Z,90.10
2017-10-19T17:26:02.842Z,86.27
2017-10-19T17:28:30.065Z,93.27
2017-10-19T17:30:58.210Z,83.07
2017-10-19T17:33:24.735Z,85.33
2017-10-19T17:35:51.078Z,85.20
2017-10-19T17:38:18.267Z,90.67
2017-10-19T17:40:44.719Z,94.50
2017-10-19T17:43:11.826Z,95.03
2017-10-19T17:45:38.298Z,96.83
2017-10-19T17:48:05.378Z,91.03
2017-10-19T17:50:31.750Z,90.57
2017-10-19T17:52:58.136Z,93.63
2017-10-19T17:55:24.504Z,99.37
2017-10-19T17:57:50.889Z,89.17
2017-10-19T18:00:17.237Z,94.30
2017-10-19T18:02:43.533Z,87.93
2017-10-19T18:05:09.887Z,91.17
2017-10-19T18:07:36.233Z,94.50
2017-10-19T18:10:03.250Z,93.70
2017-10-19T18:12:30.335Z,94.03
2017-10-19T18:14:56.686Z,90.23
2017-10-19T18:17:22.996Z,88.23
2017-10-19T18:19:49.303Z,92.87
2017-10-19T18:22:15.582Z,91.13
2017-10-19T18:24:41.924Z,88.87
2017-10-19T18:27:09.844Z,97.77
2017-10-19T18:29:36.257Z,85.07
2017-10-19T18:32:03.347Z,90.70
2017-10-19T18:34:29.691Z,85.93
2017-10-19T18:36:55.958Z,96.60
2017-10-19T18:39:22.299Z,108.23
2017-10-19T18:41:49.366Z,88.00
2017-10-19T18:44:15.760Z,96.07
2017-10-19T18:46:42.251Z,106.50
2017-10-19T18:49:08.705Z,97.03
2017-10-19T18:51:35.048Z,96.47
2017-10-19T18:54:01.388Z,93.27
2017-10-19T18:56:27.747Z,104.10
2017-10-19T18:58:54.129Z,93.83
2017-10-19T19:01:20.926Z,102.27
2017-10-19T19:03:48.382Z,112.33
2017-10-19T19:06:15.640Z,101.50
2017-10-19T19:08:42.031Z,97.80
2017-10-19T19:11:08.528Z,103.50
2017-10-19T19:13:35.987Z,104.70
2017-10-19T19:16:04.774Z,111.37
2017-10-19T19:18:31.153Z,129.70
2017-10-19T19:20:58.279Z,121.33
2017-10-19T19:23:24.715Z,115.43
2017-10-19T19:25:51.427Z,111.47
2017-10-19T19:28:17.957Z,116.97
2017-10-19T19:30:44.315Z,102.47
2017-10-19T19:33:11.424Z,102.63
2017-10-19T19:35:38.570Z,106.67
2017-10-19T19:38:06.522Z,106.70
2017-10-19T19:40:33.560Z,101.93
2017-10-19T19:42:59.992Z,93.97
2017-10-19T19:45:26.361Z,102.27
2017-10-19T19:47:52.843Z,109.87
2017-10-19T19:50:19.147Z,99.80
2017-10-19T19:52:45.505Z,103.13
2017-10-19T19:55:11.793Z,98.53
2017-10-19T19:57:39.108Z,90.77
2017-10-19T20:00:05.440Z,90.13
2017-10-19T20:02:31.875Z,102.30
2017-10-19T20:04:58.196Z,97.30
2017-10-19T20:07:24.489Z,89.83
2017-10-19T20:09:50.890Z,96.67
2017-10-19T20:12:17.966Z,92.63
2017-10-19T20:14:44.296Z,91.90
2017-10-19T20:17:10.598Z,88.73
2017-10-19T20:19:37.670Z,86.20
2017-10-19T20:22:04.116Z,87.93
2017-10-19T20:24:30.605Z,88.10
2017-10-19T20:26:57.028Z,87.87
2017-10-19T20:29:23.477Z,87.77
2017-10-19T20:31:49.784Z,85.17
2017-10-19T20:34:16.077Z,88.97
2017-10-19T20:36:42.551Z,83.27
2017-10-19T20:39:08.890Z,85.13
2017-10-19T20:41:35.440Z,85.20
2017-10-19T20:44:01.900Z,82.83
2017-10-19T20:46:28.260Z,91.20
2017-10-19T20:48:54.583Z,79.17
2017-10-19T20:51:21.068Z,82.13
2017-10-19T20:53:47.381Z,75.90
2017-10-19T20:56:13.755Z,85.17
2017-10-19T20:58:40.076Z,80.50
2017-10-19T21:01:07.235Z,77.10
2017-10-19T21:03:33.797Z,83.57
2017-10-19T21:06:00.217Z,80.83
2017-10-19T21:08:26.827Z,85.60
2017-10-19T21:10:53.911Z,84.20
2017-10-19T21:13:20.314Z,82.10
2017-10-19T21:15:47.489Z,82.50
2017-10-19T21:18:13.816Z,84.93
2017-10-19T21:20:40.175Z,81.33
2017-10-19T21:23:06.700Z,77.70
2017-10-19T21:25:33.064Z,79.07
2017-10-19T21:27:59.461Z,79.93
2017-10-19T21:30:25.826Z,79.93
2017-10-19T21:32:52.326Z,78.10
2017-10-19T21:35:18.694Z,86.87
2017-10-19T21:37:45.045Z,82.57
2017-10-19T21:40:11.381Z,76.03
2017-10-19T21:42:37.787Z,86.90
2017-10-19T21:45:04.207Z,80.70
2017-10-19T21:47:30.690Z,79.60
2017-10-19T21:49:57.758Z,78.03
2017-10-19T21:52:24.115Z,83.70
2017-10-19T21:54:50.533Z,90.00
2017-10-19T21:57:16.868Z,75.17
2017-10-19T21:59:43.210Z,82.03
2017-10-19T22:02:09.604Z,76.17
2017-10-19T22:04:36.721Z,72.10
2017-10-19T22:07:03.089Z,80.87
2017-10-19T22:09:29.963Z,85.20
2017-10-19T22:11:56.309Z,79.93
2017-10-19T22:14:22.673Z,81.20
2017-10-19T22:16:48.973Z,95.53
2017-10-19T22:19:15.361Z,80.30
2017-10-19T22:21:42.424Z,82.37
2017-10-19T22:24:08.801Z,89.03
2017-10-19T22:26:35.165Z,86.83
2017-10-19T22:29:02.218Z,85.20
2017-10-19T22:31:29.368Z,86.47
2017-10-19T22:33:55.685Z,86.73
2017-10-19T22:36:22.126Z,80.60
2017-10-19T22:38:49.279Z,80.83
2017-10-19T22:41:15.617Z,81.17
2017-10-19T22:43:42.754Z,90.87
2017-10-19T22:46:09.914Z,82.27
2017-10-19T22:48:36.995Z,87.47
2017-10-19T22:51:03.400Z,76.90
2017-10-19T22:53:30.509Z,86.93
2017-10-19T22:55:56.810Z,80.43
2017-10-19T22:58:23.141Z,90.70
2017-10-19T23:00:49.494Z,94.13
2017-10-19T23:03:16.657Z,81.30
2017-10-19T23:05:43.056Z,79.57
2017-10-19T23:08:09.455Z,86.30
2017-10-19T23:10:36.573Z,93.70
2017-10-19T23:13:02.960Z,94.97
2017-10-19T23:15:29.338Z,89.90
2017-10-19T23:17:55.663Z,92.20
2017-10-19T23:20:22.170Z,89.13
2017-10-19T23:22:48.529Z,90.67
2017-10-19T23:25:14.923Z,93.90
2017-10-19T23:27:41.311Z,87.40
2017-10-19T23:30:07.670Z,94.90
2017-10-19T23:32:34.798Z,93.47
2017-10-19T23:35:01.264Z,97.70
2017-10-19T23:37:27.619Z,93.37
2017-10-19T23:39:53.982Z,90.03
2017-10-19T23:42:20.330Z,100.00
2017-10-19T23:44:46.834Z,93.63
2017-10-19T23:47:13.179Z,96.57
2017-10-19T23:49:39.594Z,93.20
2017-10-19T23:52:05.949Z,90.67
2017-10-19T23:54:32.322Z,84.50
2017-10-19T23:56:58.660Z,102.17
2017-10-19T23:59:25.019Z,105.50
